METAR Data
IDs: Format: Raw Decoded Include TAF

Data at: 0309 UTC 24 Jun 2021

METAR for:KLUK (Cincinnati/Lunken Ar, OH, US)
Text:KLUK 240253Z 00000KT 10SM CLR 17/12 A3016 RMK AO2 SLP210 T01670122 55001
Temperature: 16.7°C ( 62°F)
Dewpoint: 12.2°C ( 54°F) [RH = 75%]
Pressure (altimeter):30.16 inches Hg (1021.4 mb) [Sea level pressure: 1021.0 mb]
Winds:calm
Visibility:10 or more sm (16+ km)
Ceiling:at least 12,000 feet AGL
Clouds:sky clear below 12,000 feet AGL